createdAt,value
2022-11-21T00:01:14.122Z,13.22
2022-11-21T00:03:41.006Z,13.26
2022-11-21T00:06:08.007Z,13.24
2022-11-21T00:08:34.821Z,13.26
2022-11-21T00:11:01.653Z,13.28
2022-11-21T00:13:28.554Z,13.28
2022-11-21T00:15:55.300Z,13.30
2022-11-21T00:18:22.069Z,13.35
2022-11-21T00:20:48.860Z,13.33
2022-11-21T00:23:15.730Z,13.42
2022-11-21T00:25:42.611Z,13.40
2022-11-21T00:28:09.410Z,13.39
2022-11-21T00:30:36.252Z,13.38
2022-11-21T00:33:03.173Z,13.38
2022-11-21T00:35:31.101Z,13.42
2022-11-21T00:37:58.043Z,13.42
2022-11-21T00:40:24.942Z,13.48
2022-11-21T00:42:51.812Z,13.49
2022-11-21T00:45:24.133Z,13.59
2022-11-21T00:47:51.390Z,13.72
2022-11-21T00:50:18.294Z,13.76
2022-11-21T00:52:45.118Z,13.84
2022-11-21T00:55:11.895Z,13.86
2022-11-21T00:57:38.689Z,13.85
2022-11-21T01:00:06.262Z,13.79
2022-11-21T01:02:33.329Z,13.79
2022-11-21T01:05:00.229Z,13.79
2022-11-21T01:07:27.130Z,13.76
2022-11-21T01:09:54.150Z,13.72
2022-11-21T01:12:20.994Z,13.72
2022-11-21T01:14:47.819Z,13.73
2022-11-21T01:17:14.697Z,13.71
2022-11-21T01:19:41.535Z,13.77
2022-11-21T01:22:08.600Z,13.85
2022-11-21T01:24:35.575Z,13.87
2022-11-21T01:27:02.408Z,13.95
2022-11-21T01:29:29.408Z,13.96
2022-11-21T01:31:56.397Z,14.01
2022-11-21T01:34:23.327Z,13.99
2022-11-21T01:36:50.112Z,14.02
2022-11-21T01:39:16.999Z,14.09
2022-11-21T01:41:45.972Z,14.10
2022-11-21T01:44:28.030Z,14.16
2022-11-21T01:46:55.567Z,14.18
2022-11-21T01:49:27.402Z,14.18
2022-11-21T01:51:56.728Z,14.22
2022-11-21T01:54:34.281Z,14.20
2022-11-21T01:57:17.436Z,14.23
2022-11-21T01:59:47.963Z,14.25
2022-11-21T02:02:20.849Z,14.25
2022-11-21T02:04:49.925Z,14.26
2022-11-21T02:07:21.171Z,14.28
2022-11-21T02:09:53.656Z,14.39
2022-11-21T02:12:24.832Z,14.45
2022-11-21T02:14:53.225Z,14.53
2022-11-21T02:17:20.077Z,14.58
2022-11-21T02:19:57.513Z,14.57
2022-11-21T02:22:28.098Z,14.66
2022-11-21T02:25:08.474Z,14.68
2022-11-21T02:27:35.833Z,14.71
2022-11-21T02:30:04.647Z,14.74
2022-11-21T02:32:46.883Z,14.87
2022-11-21T02:35:15.836Z,14.97
2022-11-21T02:37:45.137Z,15.00
2022-11-21T02:40:18.336Z,15.16
2022-11-21T02:43:01.519Z,15.32
2022-11-21T02:45:44.299Z,15.33
2022-11-21T02:48:12.230Z,15.45
2022-11-21T02:50:41.991Z,15.54
2022-11-21T02:53:12.051Z,15.64
2022-11-21T02:55:39.298Z,15.69
2022-11-21T02:58:06.537Z,15.77
2022-11-21T03:00:35.081Z,15.81
2022-11-21T03:03:02.114Z,15.92
2022-11-21T03:05:28.988Z,15.93
2022-11-21T03:25:35.758Z,16.14
2022-11-21T03:28:02.564Z,16.31
2022-11-21T03:30:29.472Z,16.37
2022-11-21T03:32:57.524Z,16.41
2022-11-21T03:35:24.848Z,16.41
2022-11-21T03:37:51.721Z,16.31
2022-11-21T03:40:18.587Z,16.28
2022-11-21T03:42:45.511Z,16.20
2022-11-21T03:45:12.464Z,16.21
2022-11-21T03:47:39.410Z,16.15
2022-11-21T03:50:06.684Z,16.11
2022-11-21T03:52:33.781Z,16.06
2022-11-21T03:55:00.574Z,15.95
2022-11-21T03:57:27.426Z,15.93
2022-11-21T03:59:54.190Z,15.90
2022-11-21T04:02:21.048Z,15.84
2022-11-21T04:04:47.975Z,15.86
2022-11-21T04:07:14.934Z,15.92
2022-11-21T04:09:41.854Z,15.95
2022-11-21T04:12:08.944Z,16.01
2022-11-21T04:14:35.901Z,16.05
2022-11-21T04:17:02.649Z,16.15
2022-11-21T04:19:29.541Z,16.27
2022-11-21T04:21:56.412Z,16.38
2022-11-21T04:24:23.257Z,16.41
2022-11-21T04:26:50.089Z,16.41
2022-11-21T04:29:16.958Z,16.44
2022-11-21T04:31:43.847Z,16.47
2022-11-21T04:34:10.925Z,16.53
2022-11-21T04:36:37.884Z,16.60
2022-11-21T04:39:04.947Z,16.63
2022-11-21T04:41:31.983Z,16.63
2022-11-21T04:43:58.829Z,16.63
2022-11-21T04:46:25.716Z,16.60
2022-11-21T04:48:52.622Z,16.58
2022-11-21T04:51:19.518Z,16.52
2022-11-21T04:53:46.341Z,16.47
2022-11-21T04:56:16.640Z,16.41
2022-11-21T04:58:44.971Z,16.42
2022-11-21T05:01:12.598Z,16.33
2022-11-21T05:03:39.736Z,16.29
2022-11-21T05:06:06.617Z,16.20
2022-11-21T05:08:34.014Z,16.16
2022-11-21T05:11:19.614Z,16.20
2022-11-21T05:13:47.177Z,16.13
2022-11-21T05:16:14.087Z,16.03
2022-11-21T05:18:40.886Z,16.00
2022-11-21T05:21:07.716Z,15.95
2022-11-21T05:23:34.626Z,16.00
2022-11-21T05:26:01.833Z,16.02
2022-11-21T05:28:28.778Z,16.00
2022-11-21T05:30:55.594Z,16.06
2022-11-21T05:33:22.430Z,16.06
2022-11-21T05:35:49.554Z,16.14
2022-11-21T05:38:16.540Z,16.25
2022-11-21T05:40:43.359Z,16.34
2022-11-21T05:43:30.999Z,16.54
2022-11-21T05:45:57.832Z,16.72
2022-11-21T05:48:24.757Z,16.92
2022-11-21T05:50:51.624Z,17.13
2022-11-21T05:53:18.944Z,17.28
2022-11-21T05:55:46.584Z,17.39
2022-11-21T05:58:13.821Z,17.55
2022-11-21T06:00:40.686Z,17.65
2022-11-21T06:03:28.872Z,17.77
2022-11-21T06:05:58.675Z,17.92
2022-11-21T06:08:25.969Z,18.04
2022-11-21T06:10:52.905Z,18.11
2022-11-21T06:13:22.547Z,18.25
2022-11-21T06:15:51.678Z,18.22
2022-11-21T06:18:19.178Z,18.30
2022-11-21T06:20:46.474Z,18.14
2022-11-21T06:23:13.365Z,18.05
2022-11-21T06:25:40.314Z,18.18
2022-11-21T06:28:07.023Z,17.75
2022-11-21T06:30:33.953Z,16.96
2022-11-21T06:33:04.114Z,16.32
2022-11-21T06:35:30.980Z,15.82
2022-11-21T06:38:01.100Z,15.59
2022-11-21T06:40:27.986Z,15.41
2022-11-21T06:42:54.904Z,15.37
2022-11-21T06:45:21.630Z,15.34
2022-11-21T06:47:48.591Z,15.48
2022-11-21T06:50:15.774Z,15.39
2022-11-21T06:52:42.638Z,15.39
2022-11-21T06:55:10.877Z,15.40
2022-11-21T06:57:37.851Z,15.39
2022-11-21T07:00:06.032Z,15.44
2022-11-21T07:02:32.997Z,15.46
2022-11-21T07:04:59.850Z,15.53
2022-11-21T07:07:26.749Z,15.63
2022-11-21T07:09:53.601Z,15.73
2022-11-21T07:12:38.984Z,15.83
2022-11-21T07:15:06.500Z,15.93
2022-11-21T07:17:33.258Z,16.00
2022-11-21T07:20:00.103Z,16.01
2022-11-21T07:22:26.922Z,16.00
2022-11-21T07:24:53.808Z,15.99
2022-11-21T07:27:20.639Z,16.02
2022-11-21T07:29:47.471Z,15.99
2022-11-21T07:32:15.167Z,16.00
2022-11-21T07:34:41.971Z,16.00
2022-11-21T07:37:08.897Z,16.02
2022-11-21T07:39:35.737Z,16.01
2022-11-21T07:42:02.661Z,16.04
2022-11-21T07:44:30.046Z,16.01
2022-11-21T07:46:56.927Z,16.00
2022-11-21T07:49:23.801Z,16.15
2022-11-21T07:51:50.903Z,16.26
2022-11-21T07:54:17.826Z,16.60
2022-11-21T07:56:44.672Z,16.86
2022-11-21T07:59:11.685Z,16.92
2022-11-21T08:01:43.990Z,17.05
2022-11-21T08:04:12.180Z,17.67
2022-11-21T08:06:39.145Z,18.13
2022-11-21T08:09:05.969Z,18.71
2022-11-21T08:11:32.899Z,20.13
2022-11-21T08:13:59.835Z,21.15
2022-11-21T08:16:28.295Z,22.09
2022-11-21T08:18:55.266Z,23.16
2022-11-21T08:21:22.236Z,20.95
2022-11-21T08:23:49.327Z,20.11
2022-11-21T08:26:16.744Z,18.84
2022-11-21T08:28:43.658Z,17.80
2022-11-21T08:31:10.850Z,17.60
2022-11-21T08:33:37.718Z,17.65
2022-11-21T08:36:07.903Z,17.74
2022-11-21T08:38:34.768Z,18.01
2022-11-21T08:41:20.145Z,19.91
2022-11-21T08:43:47.031Z,21.85
2022-11-21T08:46:14.051Z,23.41
2022-11-21T08:48:40.923Z,24.14
2022-11-21T08:51:07.762Z,23.64
2022-11-21T08:53:34.559Z,23.13
2022-11-21T08:56:04.182Z,22.23
2022-11-21T08:58:31.609Z,21.40
2022-11-21T09:00:59.712Z,20.83
2022-11-21T09:03:30.798Z,21.06
2022-11-21T09:05:59.928Z,20.88
2022-11-21T09:08:26.968Z,22.07
2022-11-21T09:10:53.824Z,21.33
2022-11-21T09:13:20.795Z,20.63
2022-11-21T09:16:06.489Z,21.58
2022-11-21T09:18:33.586Z,23.58
2022-11-21T09:21:00.587Z,24.78
2022-11-21T09:23:27.449Z,25.93
2022-11-21T09:25:54.458Z,26.15
2022-11-21T09:28:21.419Z,26.15
2022-11-21T09:30:48.386Z,26.35
2022-11-21T09:33:17.076Z,28.59
2022-11-21T09:35:44.170Z,28.57
2022-11-21T09:38:11.450Z,26.15
2022-11-21T09:40:43.735Z,24.27
2022-11-21T09:43:36.342Z,22.84
2022-11-21T09:46:06.169Z,21.91
2022-11-21T09:49:05.126Z,22.21
2022-11-21T09:51:32.356Z,21.23
2022-11-21T09:54:07.715Z,20.80
2022-11-21T09:56:41.400Z,20.48
2022-11-21T09:59:38.914Z,20.07
2022-11-21T10:02:18.180Z,20.05
2022-11-21T10:04:47.173Z,20.01
2022-11-21T10:07:22.527Z,19.65
2022-11-21T10:10:10.523Z,19.60
2022-11-21T10:12:44.330Z,19.72
2022-11-21T10:15:54.068Z,19.36
2022-11-21T10:18:45.486Z,19.11
2022-11-21T10:21:24.490Z,19.14
2022-11-21T10:24:12.621Z,21.47
2022-11-21T10:26:49.616Z,24.37
2022-11-21T10:29:19.471Z,22.34
2022-11-21T10:31:47.202Z,21.12
2022-11-21T10:34:19.870Z,20.54
2022-11-21T10:36:55.604Z,20.00
2022-11-21T10:39:41.380Z,19.81
2022-11-21T10:42:58.201Z,19.24
2022-11-21T10:45:25.372Z,18.82
2022-11-21T10:47:53.526Z,19.04
2022-11-21T10:50:49.200Z,18.80
2022-11-21T10:53:40.256Z,19.02
2022-11-21T10:56:14.791Z,19.71
2022-11-21T10:58:44.395Z,22.12
2022-11-21T11:01:31.067Z,24.03
2022-11-21T11:04:28.556Z,25.56
2022-11-21T11:06:57.501Z,26.13
2022-11-21T11:09:28.603Z,25.71
2022-11-21T11:12:46.620Z,23.04
2022-11-21T11:15:24.942Z,21.28
2022-11-21T11:17:57.691Z,20.14
2022-11-21T11:20:41.231Z,19.34
2022-11-21T11:23:20.175Z,18.69
2022-11-21T11:25:50.252Z,18.72
2022-11-21T11:28:19.390Z,18.57
2022-11-21T11:30:48.111Z,18.69
2022-11-21T11:33:37.501Z,19.07
2022-11-21T11:36:13.110Z,19.47
2022-11-21T11:38:44.172Z,19.71
2022-11-21T11:41:26.371Z,20.15
2022-11-21T11:44:39.031Z,19.98
2022-11-21T11:47:30.709Z,18.90
2022-11-21T11:50:13.960Z,18.47
2022-11-21T11:52:59.462Z,18.20
2022-11-21T11:55:47.602Z,18.11
2022-11-21T11:58:39.788Z,18.03
2022-11-21T12:01:13.745Z,17.93
2022-11-21T12:04:12.852Z,17.77
2022-11-21T12:07:46.646Z,17.76
2022-11-21T12:10:09.197Z,17.69
2022-11-21T12:12:39.382Z,17.61
2022-11-21T12:15:37.096Z,17.38
2022-11-21T12:18:26.062Z,17.31
2022-11-21T12:21:00.122Z,17.31
2022-11-21T12:23:47.401Z,17.33
2022-11-21T12:26:20.396Z,17.22
2022-11-21T12:28:56.357Z,17.18
2022-11-21T12:31:32.445Z,17.18
2022-11-21T12:34:04.629Z,17.26
2022-11-21T12:36:51.214Z,17.57
2022-11-21T12:39:48.176Z,17.68
2022-11-21T12:42:44.325Z,17.63
2022-11-21T12:45:29.116Z,17.58
2022-11-21T12:48:32.927Z,17.00
2022-11-21T12:51:42.171Z,16.67
2022-11-21T12:54:37.997Z,16.59
2022-11-21T12:57:11.833Z,16.56
2022-11-21T13:00:09.964Z,16.35
2022-11-21T13:02:39.966Z,16.35
2022-11-21T13:05:12.816Z,16.33
2022-11-21T13:07:40.847Z,16.37
2022-11-21T13:10:15.226Z,16.19
2022-11-21T13:13:06.310Z,15.91
2022-11-21T13:15:49.680Z,15.78
2022-11-21T13:18:25.544Z,15.75
2022-11-21T13:20:52.959Z,15.77
2022-11-21T13:23:37.403Z,15.84
2022-11-21T13:26:30.607Z,15.92
2022-11-21T13:29:16.167Z,15.83
2022-11-21T13:31:43.696Z,15.55
2022-11-21T13:34:33.912Z,15.16
2022-11-21T13:37:01.380Z,15.20
2022-11-21T13:39:31.831Z,15.04
2022-11-21T13:42:21.448Z,14.87
2022-11-21T13:44:49.592Z,14.83
2022-11-21T13:47:25.680Z,14.78
2022-11-21T13:50:04.298Z,14.66
2022-11-21T13:53:10.718Z,14.61
2022-11-21T13:56:08.482Z,14.51
2022-11-21T13:58:56.470Z,14.32
2022-11-21T14:01:48.541Z,14.21
2022-11-21T14:04:21.546Z,14.04
2022-11-21T14:06:48.595Z,13.95
2022-11-21T14:09:21.571Z,13.97
2022-11-21T14:12:13.732Z,13.94
2022-11-21T14:14:53.558Z,13.87
2022-11-21T14:17:50.822Z,13.79
2022-11-21T14:20:25.546Z,13.80
2022-11-21T14:23:05.388Z,13.65
2022-11-21T14:25:41.124Z,13.64
2022-11-21T14:28:24.229Z,13.66
2022-11-21T14:30:58.226Z,13.61
2022-11-21T14:33:25.163Z,13.48
2022-11-21T14:36:20.727Z,13.39
2022-11-21T14:39:13.904Z,13.39
2022-11-21T14:41:39.993Z,13.35
2022-11-21T14:44:15.752Z,13.38
2022-11-21T14:46:44.221Z,13.33
2022-11-21T14:49:17.340Z,13.27
2022-11-21T14:51:58.320Z,13.14
2022-11-21T14:54:28.872Z,13.09
2022-11-21T14:57:02.725Z,13.01
2022-11-21T14:59:39.252Z,12.94
2022-11-21T15:02:17.262Z,12.80
2022-11-21T15:04:45.179Z,12.75
2022-11-21T15:07:31.875Z,12.74
2022-11-21T15:10:28.642Z,12.63
2022-11-21T15:28:09.452Z,11.72
2022-11-21T15:30:38.188Z,11.76
2022-11-21T15:33:18.947Z,11.80
2022-11-21T15:35:54.925Z,11.73
2022-11-21T15:38:31.046Z,11.68
2022-11-21T15:41:10.251Z,11.66
2022-11-21T15:43:48.156Z,11.61
2022-11-21T15:46:29.870Z,11.58
2022-11-21T15:48:59.107Z,11.58
2022-11-21T15:54:34.741Z,11.61
2022-11-21T15:57:01.527Z,11.54
2022-11-21T15:59:28.789Z,11.49
2022-11-21T16:01:55.784Z,11.50
2022-11-21T16:04:26.012Z,11.50
2022-11-21T16:06:54.101Z,11.37
2022-11-21T16:09:23.049Z,11.32
2022-11-21T16:11:49.934Z,11.27
2022-11-21T16:14:18.613Z,11.18
2022-11-21T16:16:47.502Z,11.09
2022-11-21T16:19:15.601Z,11.02
2022-11-21T16:21:42.944Z,10.90
2022-11-21T16:24:09.817Z,10.88
2022-11-21T16:26:36.884Z,10.75
2022-11-21T16:29:05.760Z,10.68
2022-11-21T16:31:33.350Z,10.74
2022-11-21T16:34:00.860Z,10.74
2022-11-21T16:36:32.417Z,10.63
2022-11-21T16:39:07.869Z,10.59
2022-11-21T16:41:36.411Z,10.57
2022-11-21T16:44:03.384Z,10.44
2022-11-21T16:46:30.286Z,10.45
2022-11-21T16:49:02.660Z,10.45
2022-11-21T16:51:30.541Z,10.44
2022-11-21T16:54:01.585Z,10.28
2022-11-21T16:56:29.881Z,10.33
2022-11-21T16:58:56.789Z,10.36
2022-11-21T17:01:26.128Z,10.43
2022-11-21T17:03:53.238Z,10.40
2022-11-21T17:06:22.466Z,10.37
2022-11-21T17:08:49.770Z,10.35
2022-11-21T17:11:19.692Z,10.29
2022-11-21T17:13:47.765Z,10.38
2022-11-21T17:16:16.953Z,10.37
2022-11-21T17:18:44.777Z,10.33
2022-11-21T17:21:15.755Z,10.38
2022-11-21T17:23:44.535Z,10.37
2022-11-21T17:26:16.557Z,10.31
2022-11-21T17:28:46.103Z,10.36
2022-11-21T17:31:15.930Z,10.36
2022-11-21T17:33:43.771Z,10.32
2022-11-21T17:36:15.053Z,10.35
2022-11-21T17:38:47.081Z,10.29
2022-11-21T17:41:16.877Z,10.23
2022-11-21T17:43:44.734Z,10.20
2022-11-21T17:46:14.739Z,10.20
2022-11-21T17:48:41.667Z,10.16
2022-11-21T17:51:12.527Z,10.18
2022-11-21T17:53:41.733Z,10.20
2022-11-21T17:56:12.456Z,10.15
2022-11-21T17:58:39.403Z,10.17
2022-11-21T18:01:08.011Z,10.13
2022-11-21T18:03:35.866Z,10.11
2022-11-21T18:06:15.257Z,10.02
2022-11-21T18:08:44.247Z,10.02
2022-11-21T18:11:12.907Z,9.96
2022-11-21T18:13:40.792Z,9.92
2022-11-21T18:16:10.527Z,9.93
2022-11-21T18:18:37.691Z,9.95
2022-11-21T18:21:13.170Z,9.93
2022-11-21T18:23:40.093Z,9.81
2022-11-21T18:26:11.297Z,9.78
2022-11-21T18:28:38.384Z,9.71
2022-11-21T18:31:10.330Z,9.65
2022-11-21T18:33:38.418Z,9.59
2022-11-21T18:36:06.748Z,9.48
2022-11-21T18:38:56.590Z,9.42
2022-11-21T18:41:24.738Z,9.39
2022-11-21T18:44:00.456Z,9.25
2022-11-21T18:46:28.851Z,9.25
2022-11-21T18:49:11.935Z,9.26
2022-11-21T18:51:38.818Z,9.22
2022-11-21T18:54:08.699Z,9.23
2022-11-21T18:56:37.627Z,9.16
2022-11-21T18:59:06.121Z,9.18
2022-11-21T19:01:34.940Z,9.12
2022-11-21T19:04:02.134Z,9.12
2022-11-21T19:06:29.343Z,9.17
2022-11-21T19:08:58.346Z,9.19
2022-11-21T19:11:28.603Z,9.14
2022-11-21T19:13:56.751Z,9.08
2022-11-21T19:16:26.521Z,9.12
2022-11-21T19:21:43.684Z,9.10
2022-11-21T19:24:13.426Z,9.07
2022-11-21T19:26:41.154Z,9.08
2022-11-21T19:29:08.274Z,9.06
2022-11-21T19:31:40.748Z,8.97
2022-11-21T19:34:11.900Z,8.96
2022-11-21T19:36:39.547Z,8.86
2022-11-21T19:39:06.695Z,8.87
2022-11-21T19:41:33.572Z,8.82
2022-11-21T19:44:01.729Z,8.70
2022-11-21T19:46:37.011Z,8.64
2022-11-21T19:49:05.101Z,8.50
2022-11-21T19:51:40.858Z,8.39
2022-11-21T19:54:09.698Z,8.29
2022-11-21T19:56:37.337Z,8.22
2022-11-21T19:59:05.005Z,8.13
2022-11-21T20:01:33.664Z,8.12
2022-11-21T20:04:02.811Z,8.07
2022-11-21T20:06:34.846Z,8.05
2022-11-21T20:09:05.898Z,8.02
2022-11-21T20:11:33.469Z,7.95
2022-11-21T20:14:00.627Z,8.01
2022-11-21T20:16:33.378Z,7.98
2022-11-21T20:19:02.964Z,7.95
2022-11-21T20:21:30.318Z,7.91
2022-11-21T20:23:57.385Z,7.92
2022-11-21T20:26:25.018Z,7.87
2022-11-21T20:28:52.127Z,7.83
2022-11-21T20:31:21.788Z,7.81
2022-11-21T20:36:39.152Z,7.80
2022-11-21T20:39:18.128Z,7.77
2022-11-21T20:41:46.044Z,7.75
2022-11-21T20:47:03.342Z,7.76
2022-11-21T20:49:30.564Z,7.82
2022-11-21T20:54:44.671Z,7.96
2022-11-21T20:57:15.091Z,7.82
2022-11-21T20:59:43.005Z,7.92
2022-11-21T21:02:14.350Z,7.88
2022-11-21T21:04:41.838Z,7.91
2022-11-21T21:07:08.853Z,8.03
2022-11-21T21:09:40.914Z,7.93
2022-11-21T21:12:08.732Z,7.91
2022-11-21T21:14:35.862Z,7.97
2022-11-21T21:17:02.826Z,7.95
2022-11-21T21:19:30.026Z,7.95
2022-11-21T21:21:57.267Z,8.03
2022-11-21T21:24:24.094Z,7.97
2022-11-21T21:26:50.963Z,8.05
2022-11-21T21:29:19.690Z,8.04
2022-11-21T21:31:51.073Z,7.97
2022-11-21T21:34:18.981Z,7.92
2022-11-21T21:36:45.905Z,7.95
2022-11-21T21:39:12.955Z,7.98
2022-11-21T21:41:41.551Z,7.97
2022-11-21T21:44:08.365Z,7.93
2022-11-21T21:46:35.229Z,8.00
2022-11-21T21:49:02.145Z,7.95
2022-11-21T21:51:30.771Z,7.99
2022-11-21T21:53:59.191Z,7.88
2022-11-21T21:56:27.963Z,7.97
2022-11-21T21:58:57.118Z,8.09
2022-11-21T22:01:26.826Z,8.07
2022-11-21T22:04:02.462Z,7.97
2022-11-21T22:06:30.082Z,7.96
2022-11-21T22:08:57.170Z,7.85
2022-11-21T22:11:31.936Z,7.81
2022-11-21T22:14:01.673Z,7.78
2022-11-21T22:16:29.255Z,7.63
2022-11-21T22:18:56.831Z,7.60
2022-11-21T22:21:34.788Z,7.60
2022-11-21T22:24:31.053Z,7.60
2022-11-21T22:26:58.143Z,7.61
2022-11-21T22:29:25.458Z,7.48
2022-11-21T22:31:52.511Z,7.66
2022-11-21T22:34:19.453Z,7.59
2022-11-21T22:36:46.995Z,7.67
2022-11-21T22:39:14.413Z,7.67
2022-11-21T22:41:41.356Z,7.58
2022-11-21T22:44:08.560Z,7.58
2022-11-21T22:46:35.463Z,7.62
2022-11-21T22:49:02.366Z,7.52
2022-11-21T22:51:29.980Z,7.45
2022-11-21T22:53:58.062Z,7.52
2022-11-21T22:56:26.661Z,7.50
2022-11-21T22:58:54.073Z,7.46
2022-11-21T23:01:24.087Z,7.46
2022-11-21T23:03:51.774Z,7.39
2022-11-21T23:06:21.378Z,7.30
2022-11-21T23:08:48.558Z,7.32
2022-11-21T23:11:26.301Z,7.31
2022-11-21T23:13:54.204Z,7.12
2022-11-21T23:16:21.594Z,7.19
2022-11-21T23:18:48.868Z,7.21
2022-11-21T23:21:15.671Z,7.13
2022-11-21T23:23:44.110Z,7.13
2022-11-21T23:26:11.794Z,7.06
2022-11-21T23:28:38.742Z,7.03
2022-11-21T23:31:05.575Z,6.98
2022-11-21T23:33:32.362Z,6.90
2022-11-21T23:35:59.312Z,6.96
2022-11-21T23:38:26.728Z,6.90
2022-11-21T23:40:53.620Z,6.88
2022-11-21T23:43:20.748Z,6.84
2022-11-21T23:45:52.056Z,6.83
2022-11-21T23:48:19.847Z,6.99
2022-11-21T23:50:48.230Z,6.89
2022-11-21T23:53:15.247Z,6.91
2022-11-21T23:55:43.463Z,6.79
2022-11-21T23:58:12.661Z,6.88
